Time;durP1;ratioP1;P1;durP2;ratioP2;P2;SDS_P1;SDS_P2;PMS_P1;PMS_P2;Temp;Humidity;BMP_temperature;BMP_pressure;BME280_temperature;BME280_humidity;BME280_pressure;Samples;Min_cycle;Max_cycle;Signal;HPM_P1;HPM_P2
2021/05/20 00:01:34;;;;;;;1.00;0.50;;;;;;;;;;5041373;28;20028;-79
2021/05/20 00:04:00;;;;;;;0.47;0.38;;;;;;;;;;5040068;28;20068;-79
2021/05/20 00:06:27;;;;;;;0.45;0.40;;;;;;;;;;5040425;28;20051;-79
2021/05/20 00:08:53;;;;;;;1.55;0.50;;;;;;;;;;5040660;28;20500;-79
2021/05/20 00:11:20;;;;;;;1.10;0.45;;;;;;;;;;5038869;28;20025;-79
2021/05/20 00:13:46;;;;;;;0.40;0.25;;;;;;;;;;5039052;28;20036;-79
2021/05/20 00:16:12;;;;;;;0.45;0.40;;;;;;;;;;5039106;28;20030;-79
2021/05/20 00:18:38;;;;;;;1.00;0.50;;;;;;;;;;5038308;28;20025;-79
2021/05/20 00:21:04;;;;;;;1.75;0.52;;;;;;;;;;5038933;28;20029;-79
2021/05/20 00:23:30;;;;;;;0.40;0.40;;;;;;;;;;5039879;28;20049;-79
2021/05/20 00:25:56;;;;;;;0.95;0.75;;;;;;;;;;5040019;28;20037;-79
2021/05/20 00:28:22;;;;;;;0.40;0.40;;;;;;;;;;5039023;28;20025;-79
2021/05/20 00:30:49;;;;;;;0.20;0.20;;;;;;;;;;5039363;28;20033;-78
2021/05/20 00:33:15;;;;;;;1.85;0.50;;;;;;;;;;5037851;28;20041;-78
2021/05/20 00:35:41;;;;;;;0.52;0.30;;;;;;;;;;5039691;28;20331;-77
2021/05/20 00:38:11;;;;;;;0.95;0.60;;;;;;;;;;5043661;28;20045;-77
2021/05/20 00:40:37;;;;;;;1.33;0.80;;;;;;;;;;5041973;28;20029;-78
2021/05/20 00:43:03;;;;;;;1.05;0.40;;;;;;;;;;5041785;28;20389;-78
2021/05/20 00:45:29;;;;;;;1.23;0.60;;;;;;;;;;5053819;28;20145;-78
2021/05/20 00:47:56;;;;;;;3.00;0.60;;;;;;;;;;5062886;28;20045;-78
2021/05/20 00:50:22;;;;;;;0.82;0.55;;;;;;;;;;5063917;28;20025;-78
2021/05/20 00:52:48;;;;;;;0.57;0.50;;;;;;;;;;5063484;28;20025;-78
2021/05/20 00:55:19;;;;;;;0.47;0.47;;;;;;;;;;5058129;28;20355;-78
2021/05/20 00:57:45;;;;;;;3.00;0.75;;;;;;;;;;5043681;28;20034;-78
2021/05/20 01:00:13;;;;;;;1.63;0.68;;;;;;;;;;5043320;28;20081;-77
2021/05/20 01:02:40;;;;;;;2.25;0.70;;;;;;;;;;5042039;28;20032;-79
2021/05/20 01:05:06;;;;;;;0.50;0.50;;;;;;;;;;5046512;28;20040;-77
2021/05/20 01:07:33;;;;;;;1.17;0.70;;;;;;;;;;5061392;28;20017;-78
2021/05/20 01:09:59;;;;;;;1.27;0.60;;;;;;;;;;5061769;28;20051;-78
2021/05/20 01:12:25;;;;;;;0.88;0.65;;;;;;;;;;5062506;28;20098;-78
2021/05/20 01:14:51;;;;;;;1.23;0.65;;;;;;;;;;5048654;28;20089;-78
2021/05/20 01:17:17;;;;;;;0.75;0.60;;;;;;;;;;5048073;28;20642;-79
2021/05/20 01:19:44;;;;;;;0.63;0.52;;;;;;;;;;5044896;28;20080;-80
2021/05/20 01:22:11;;;;;;;1.35;0.60;;;;;;;;;;5043856;28;20021;-77
2021/05/20 01:24:37;;;;;;;0.98;0.57;;;;;;;;;;5040776;28;20026;-78
2021/05/20 01:27:05;;;;;;;2.20;0.90;;;;;;;;;;5042904;28;20104;-78
2021/05/20 01:29:31;;;;;;;0.60;0.45;;;;;;;;;;5047217;28;20082;-78
2021/05/20 01:31:57;;;;;;;0.70;0.65;;;;;;;;;;5048810;28;20028;-77
2021/05/20 01:34:24;;;;;;;1.23;0.90;;;;;;;;;;5044477;28;20037;-77
2021/05/20 01:36:50;;;;;;;0.75;0.75;;;;;;;;;;5050483;28;20142;-77
2021/05/20 01:39:16;;;;;;;3.53;0.85;;;;;;;;;;5058273;28;20045;-77
2021/05/20 01:41:42;;;;;;;1.13;0.90;;;;;;;;;;5050227;28;20086;-78
2021/05/20 01:44:09;;;;;;;1.80;0.70;;;;;;;;;;5044989;28;20041;-78
2021/05/20 01:46:35;;;;;;;1.40;0.70;;;;;;;;;;5050956;28;20040;-79
2021/05/20 01:49:01;;;;;;;0.80;0.60;;;;;;;;;;5043545;28;20026;-78
2021/05/20 01:51:27;;;;;;;1.30;0.57;;;;;;;;;;5047527;28;20033;-79
2021/05/20 01:53:56;;;;;;;1.10;0.60;;;;;;;;;;5046249;28;20025;-79
2021/05/20 01:56:27;;;;;;;1.75;0.63;;;;;;;;;;5045764;28;20021;-78
2021/05/20 01:58:54;;;;;;;0.52;0.52;;;;;;;;;;5045899;28;20025;-78
2021/05/20 02:01:20;;;;;;;0.65;0.65;;;;;;;;;;5044246;28;20052;-79
2021/05/20 02:03:46;;;;;;;0.68;0.40;;;;;;;;;;5044835;28;20040;-77
2021/05/20 02:06:13;;;;;;;1.30;0.50;;;;;;;;;;5045422;28;20048;-78
2021/05/20 02:08:39;;;;;;;0.52;0.40;;;;;;;;;;5044099;28;20104;-78
2021/05/20 02:11:06;;;;;;;0.43;0.38;;;;;;;;;;5053659;28;20034;-78
2021/05/20 02:13:33;;;;;;;0.35;0.35;;;;;;;;;;5055628;28;20036;-77
2021/05/20 02:15:59;;;;;;;1.98;0.57;;;;;;;;;;5050634;28;20022;-77
2021/05/20 02:18:25;;;;;;;0.30;0.30;;;;;;;;;;5046930;28;20060;-78
2021/05/20 02:20:51;;;;;;;1.60;0.38;;;;;;;;;;5047613;28;20049;-77
2021/05/20 02:23:17;;;;;;;0.43;0.30;;;;;;;;;;5047208;28;20051;-78
2021/05/20 02:25:44;;;;;;;0.63;0.43;;;;;;;;;;5042886;28;20064;-78
2021/05/20 02:28:10;;;;;;;0.52;0.50;;;;;;;;;;5043704;28;20080;-78
2021/05/20 02:30:36;;;;;;;0.32;0.20;;;;;;;;;;5050704;28;20049;-78
2021/05/20 02:33:02;;;;;;;1.42;0.30;;;;;;;;;;5049594;28;20048;-78
2021/05/20 02:35:28;;;;;;;1.67;0.40;;;;;;;;;;5048996;28;20029;-79
2021/05/20 02:37:54;;;;;;;1.50;0.30;;;;;;;;;;5046828;28;20043;-79
2021/05/20 02:40:21;;;;;;;0.95;0.35;;;;;;;;;;5046004;28;20029;-79
2021/05/20 02:42:48;;;;;;;1.45;0.40;;;;;;;;;;5045010;28;20049;-78
2021/05/20 02:45:16;;;;;;;1.40;0.30;;;;;;;;;;5041855;28;20039;-79
2021/05/20 02:47:42;;;;;;;0.30;0.30;;;;;;;;;;5039580;28;20022;-79
2021/05/20 02:50:09;;;;;;;1.05;0.40;;;;;;;;;;5040162;28;20393;-79
2021/05/20 02:52:35;;;;;;;0.52;0.40;;;;;;;;;;5056182;28;20021;-78
2021/05/20 02:55:04;;;;;;;0.50;0.28;;;;;;;;;;5050010;28;20111;-78
2021/05/20 02:57:31;;;;;;;0.60;0.45;;;;;;;;;;5040965;28;20022;-79
2021/05/20 02:59:57;;;;;;;1.08;0.40;;;;;;;;;;5039290;28;20022;-78
2021/05/20 03:02:24;;;;;;;1.65;1.05;;;;;;;;;;5040948;28;20100;-78
2021/05/20 03:04:52;;;;;;;0.40;0.40;;;;;;;;;;5044259;28;20029;-78
2021/05/20 03:07:18;;;;;;;0.70;0.40;;;;;;;;;;5043996;28;20021;-78
2021/05/20 03:09:44;;;;;;;0.75;0.35;;;;;;;;;;5041965;28;20030;-77
2021/05/20 03:12:11;;;;;;;0.30;0.30;;;;;;;;;;5046707;28;20021;-78
2021/05/20 03:14:37;;;;;;;0.30;0.30;;;;;;;;;;5060409;28;20029;-78
2021/05/20 03:17:09;;;;;;;0.57;0.30;;;;;;;;;;5060242;28;20029;-81
2021/05/20 03:19:36;;;;;;;1.35;0.47;;;;;;;;;;5047001;28;20053;-78
2021/05/20 03:22:02;;;;;;;0.52;0.35;;;;;;;;;;5053344;28;20091;-78
2021/05/20 03:24:31;;;;;;;4.03;0.50;;;;;;;;;;5054776;28;20034;-77
2021/05/20 03:26:57;;;;;;;1.05;0.38;;;;;;;;;;5053394;28;20034;-77
2021/05/20 03:29:23;;;;;;;1.20;0.43;;;;;;;;;;5051613;28;20025;-79
2021/05/20 03:31:49;;;;;;;0.35;0.35;;;;;;;;;;5062067;28;20104;-80
2021/05/20 03:34:15;;;;;;;1.60;1.08;;;;;;;;;;5059507;28;20088;-79
2021/05/20 03:36:41;;;;;;;0.70;0.50;;;;;;;;;;5057394;28;20024;-78
2021/05/20 03:39:07;;;;;;;0.55;0.20;;;;;;;;;;5058331;28;20021;-77
2021/05/20 03:41:33;;;;;;;0.38;0.38;;;;;;;;;;5072321;28;20041;-79
2021/05/20 03:44:00;;;;;;;0.30;0.30;;;;;;;;;;5063071;28;20037;-80
2021/05/20 03:46:26;;;;;;;1.08;0.30;;;;;;;;;;5059839;28;20029;-79
2021/05/20 03:48:52;;;;;;;0.47;0.47;;;;;;;;;;5060193;28;20082;-78
2021/05/20 03:51:18;;;;;;;1.38;0.50;;;;;;;;;;5058297;28;20032;-79
2021/05/20 03:53:44;;;;;;;0.82;0.52;;;;;;;;;;5049756;28;20021;-78
2021/05/20 03:56:10;;;;;;;3.05;0.68;;;;;;;;;;5041432;28;20039;-78
2021/05/20 03:58:36;;;;;;;2.85;0.52;;;;;;;;;;5044984;28;20029;-79
2021/05/20 04:01:02;;;;;;;0.73;0.30;;;;;;;;;;5045251;28;20025;-78
2021/05/20 04:03:30;;;;;;;4.38;0.20;;;;;;;;;;5049003;28;20151;-79
2021/05/20 04:06:04;;;;;;;0.32;0.20;;;;;;;;;;5064720;28;20082;-79
2021/05/20 04:08:30;;;;;;;1.00;0.47;;;;;;;;;;5059302;28;20429;-78
2021/05/20 04:10:56;;;;;;;0.52;0.30;;;;;;;;;;5059740;28;20458;-80
2021/05/20 04:13:29;;;;;;;1.27;0.55;;;;;;;;;;5057090;28;20025;-79
2021/05/20 04:15:55;;;;;;;0.50;0.28;;;;;;;;;;5017587;28;20098;-79
2021/05/20 04:18:22;;;;;;;0.73;0.32;;;;;;;;;;5049579;28;20029;-79
2021/05/20 04:20:48;;;;;;;1.42;0.35;;;;;;;;;;5057588;28;20396;-79
2021/05/20 04:23:14;;;;;;;2.63;0.30;;;;;;;;;;5058707;28;20107;-80
2021/05/20 04:25:41;;;;;;;0.20;0.20;;;;;;;;;;5042603;28;20029;-79
2021/05/20 04:28:07;;;;;;;0.35;0.35;;;;;;;;;;5044168;28;20029;-78
2021/05/20 04:30:33;;;;;;;0.25;0.22;;;;;;;;;;5056233;28;20044;-78
2021/05/20 04:32:59;;;;;;;0.77;0.45;;;;;;;;;;5046181;28;20030;-79
2021/05/20 04:35:25;;;;;;;0.43;0.40;;;;;;;;;;5038840;28;20057;-79
2021/05/20 04:37:51;;;;;;;2.50;0.50;;;;;;;;;;5037315;28;20036;-77
2021/05/20 04:40:17;;;;;;;1.23;0.52;;;;;;;;;;5043495;28;20052;-79
2021/05/20 04:42:44;;;;;;;0.90;0.68;;;;;;;;;;5040536;28;20159;-78
2021/05/20 04:45:10;;;;;;;0.40;0.40;;;;;;;;;;5069837;23;20392;-79
2021/05/20 04:47:36;;;;;;;0.47;0.47;;;;;;;;;;5031191;28;20025;-80
2021/05/20 04:50:02;;;;;;;1.75;0.65;;;;;;;;;;5038929;28;20029;-80
2021/05/20 04:52:28;;;;;;;3.28;0.60;;;;;;;;;;5037242;28;20025;-80
2021/05/20 04:54:54;;;;;;;3.67;0.68;;;;;;;;;;5049339;28;20030;-80
2021/05/20 04:57:20;;;;;;;1.75;0.50;;;;;;;;;;5014928;28;20041;-80
2021/05/20 04:59:46;;;;;;;0.40;0.40;;;;;;;;;;5016297;28;20059;-81
2021/05/20 05:02:13;;;;;;;0.30;0.30;;;;;;;;;;5023648;28;20036;-79
2021/05/20 05:04:39;;;;;;;1.40;0.70;;;;;;;;;;5017881;28;20030;-81
2021/05/20 05:07:05;;;;;;;1.45;0.88;;;;;;;;;;5017736;28;20032;-82
2021/05/20 05:09:31;;;;;;;1.13;0.80;;;;;;;;;;5035083;28;20028;-78
2021/05/20 05:11:57;;;;;;;2.00;0.70;;;;;;;;;;5014608;28;20022;-79
2021/05/20 05:14:23;;;;;;;1.23;1.10;;;;;;;;;;5023035;28;20032;-80
2021/05/20 05:16:49;;;;;;;0.60;0.60;;;;;;;;;;5029519;28;20092;-79
2021/05/20 05:19:15;;;;;;;1.23;0.65;;;;;;;;;;5038650;28;20057;-80
2021/05/20 05:21:41;;;;;;;0.65;0.52;;;;;;;;;;5040743;28;20033;-80
2021/05/20 05:24:09;;;;;;;2.10;0.80;;;;;;;;;;5043859;28;20045;-81
2021/05/20 05:26:35;;;;;;;1.25;0.70;;;;;;;;;;5035146;28;20121;-81
2021/05/20 05:29:01;;;;;;;1.05;0.70;;;;;;;;;;5023718;28;20037;-80
2021/05/20 05:31:28;;;;;;;1.33;0.63;;;;;;;;;;5021812;28;20068;-79
2021/05/20 05:33:54;;;;;;;0.50;0.50;;;;;;;;;;5020118;28;20026;-79
2021/05/20 05:36:21;;;;;;;6.07;3.78;;;;;;;;;;5020566;28;20017;-80
2021/05/20 05:38:47;;;;;;;3.30;2.83;;;;;;;;;;5019070;28;20033;-80
2021/05/20 05:41:13;;;;;;;7.63;5.88;;;;;;;;;;5021120;28;20022;-78
2021/05/20 05:43:39;;;;;;;5.45;4.10;;;;;;;;;;5020774;28;20034;-80
2021/05/20 05:46:05;;;;;;;5.45;2.72;;;;;;;;;;5030412;28;20365;-80
2021/05/20 05:48:31;;;;;;;6.43;4.65;;;;;;;;;;5023603;28;20211;-80
2021/05/20 05:50:58;;;;;;;7.78;6.68;;;;;;;;;;5021547;28;20026;-80
2021/05/20 05:53:24;;;;;;;21.92;13.55;;;;;;;;;;5019849;28;20037;-81
2021/05/20 05:55:51;;;;;;;15.82;8.40;;;;;;;;;;5021832;28;20056;-80
2021/05/20 05:58:18;;;;;;;3.63;2.42;;;;;;;;;;5020087;28;20398;-80
2021/05/20 06:00:46;;;;;;;3.58;3.30;;;;;;;;;;5021908;28;20627;-81
2021/05/20 06:03:12;;;;;;;3.67;2.10;;;;;;;;;;5021711;28;20493;-80
2021/05/20 06:05:38;;;;;;;4.97;1.98;;;;;;;;;;5022998;28;20037;-79
2021/05/20 06:08:05;;;;;;;1.65;1.10;;;;;;;;;;5017664;28;20053;-80
2021/05/20 06:10:31;;;;;;;4.63;1.73;;;;;;;;;;5020543;28;20022;-78
2021/05/20 06:12:59;;;;;;;2.03;1.20;;;;;;;;;;5019143;28;20105;-79
2021/05/20 06:15:25;;;;;;;1.13;0.88;;;;;;;;;;5030629;28;20022;-79
2021/05/20 06:17:51;;;;;;;3.35;1.35;;;;;;;;;;5028677;28;20389;-79
2021/05/20 06:20:17;;;;;;;1.83;0.80;;;;;;;;;;5021831;28;20037;-80
2021/05/20 06:22:43;;;;;;;2.17;0.98;;;;;;;;;;5019184;28;20363;-80
2021/05/20 06:25:10;;;;;;;1.85;1.20;;;;;;;;;;5018877;28;20032;-79
2021/05/20 06:27:36;;;;;;;2.95;1.08;;;;;;;;;;5020083;28;20034;-78
2021/05/20 06:30:03;;;;;;;4.43;1.10;;;;;;;;;;5023357;28;20072;-80
2021/05/20 06:32:29;;;;;;;2.40;1.20;;;;;;;;;;5019286;28;20056;-79
2021/05/20 06:34:55;;;;;;;1.10;1.00;;;;;;;;;;5019041;28;20049;-79
2021/05/20 06:37:21;;;;;;;1.23;0.80;;;;;;;;;;5023298;28;20106;-79
2021/05/20 06:39:47;;;;;;;2.35;0.90;;;;;;;;;;5019178;28;20045;-78
2021/05/20 06:42:15;;;;;;;3.28;1.02;;;;;;;;;;5021285;28;20041;-79
2021/05/20 06:44:41;;;;;;;0.90;0.90;;;;;;;;;;5034429;28;20029;-79
2021/05/20 06:47:08;;;;;;;1.92;0.75;;;;;;;;;;5029927;28;20028;-79
2021/05/20 06:49:34;;;;;;;1.30;0.98;;;;;;;;;;5018985;28;20026;-79
2021/05/20 06:52:00;;;;;;;0.93;0.90;;;;;;;;;;5020116;28;20141;-78
2021/05/20 06:54:26;;;;;;;0.70;0.70;;;;;;;;;;5019347;28;20030;-78
2021/05/20 06:56:57;;;;;;;0.68;0.60;;;;;;;;;;5019905;28;20030;-79
2021/05/20 07:02:08;;;;;;;2.67;0.68;;;;;;;;;;5022205;28;20032;-79
2021/05/20 07:04:34;;;;;;;0.65;0.65;;;;;;;;;;5034535;28;20496;-79
2021/05/20 07:07:01;;;;;;;1.27;0.80;;;;;;;;;;5020075;28;20033;-79
2021/05/20 07:09:28;;;;;;;1.65;1.00;;;;;;;;;;5018396;28;20021;-79
2021/05/20 07:11:54;;;;;;;2.08;0.90;;;;;;;;;;5022306;28;20030;-79
2021/05/20 07:14:20;;;;;;;0.90;0.90;;;;;;;;;;5015746;28;20026;-78
2021/05/20 07:16:46;;;;;;;3.85;0.73;;;;;;;;;;5025092;28;20033;-79
2021/05/20 07:19:13;;;;;;;1.42;1.10;;;;;;;;;;5021522;28;20022;-81
2021/05/20 07:21:39;;;;;;;2.80;1.00;;;;;;;;;;5018752;28;20105;-78
2021/05/20 07:24:05;;;;;;;0.73;0.50;;;;;;;;;;5020991;28;20025;-79
2021/05/20 07:26:31;;;;;;;1.30;0.98;;;;;;;;;;5024276;28;20443;-79
2021/05/20 07:29:02;;;;;;;4.95;1.10;;;;;;;;;;5022041;28;20061;-79
2021/05/20 07:31:28;;;;;;;0.63;0.60;;;;;;;;;;5023757;28;20018;-79
2021/05/20 07:33:55;;;;;;;1.20;0.80;;;;;;;;;;5023242;28;20101;-81
2021/05/20 07:36:22;;;;;;;1.60;0.60;;;;;;;;;;5034176;28;20078;-80
2021/05/20 07:38:48;;;;;;;2.58;1.45;;;;;;;;;;5031952;28;20025;-79
2021/05/20 07:41:15;;;;;;;0.70;0.70;;;;;;;;;;5031194;28;20083;-78
2021/05/20 07:43:41;;;;;;;1.05;0.70;;;;;;;;;;5024881;28;20022;-79
2021/05/20 07:46:07;;;;;;;1.80;0.90;;;;;;;;;;5030833;28;20038;-81
2021/05/20 07:48:33;;;;;;;2.60;0.82;;;;;;;;;;5024301;28;20032;-80
2021/05/20 07:51:04;;;;;;;3.22;1.10;;;;;;;;;;5021498;28;20097;-79
2021/05/20 07:53:31;;;;;;;1.30;0.82;;;;;;;;;;5020534;28;20035;-81
2021/05/20 07:55:57;;;;;;;2.92;1.02;;;;;;;;;;5021064;28;20040;-81
2021/05/20 07:58:23;;;;;;;1.00;0.45;;;;;;;;;;5024554;28;20042;-80
2021/05/20 08:00:50;;;;;;;0.90;0.82;;;;;;;;;;5022076;28;20022;-79
2021/05/20 08:13:22;;;;;;;1.60;0.50;;;;;;;;;;5024485;28;20462;-80
2021/05/20 08:15:48;;;;;;;0.70;0.45;;;;;;;;;;5033374;28;20029;-80
2021/05/20 08:18:16;;;;;;;0.28;0.20;;;;;;;;;;5041226;28;20161;-80
2021/05/20 08:20:42;;;;;;;0.77;0.22;;;;;;;;;;5038720;28;20025;-80
2021/05/20 08:23:08;;;;;;;1.02;0.28;;;;;;;;;;5039209;28;20030;-81
2021/05/20 08:25:34;;;;;;;0.30;0.30;;;;;;;;;;5022179;28;20041;-81
2021/05/20 08:28:00;;;;;;;0.38;0.30;;;;;;;;;;5019400;28;20120;-81
2021/05/20 08:30:27;;;;;;;0.95;0.57;;;;;;;;;;5018356;28;20034;-81
2021/05/20 08:32:53;;;;;;;0.88;0.70;;;;;;;;;;5018850;28;20052;-81
2021/05/20 08:35:19;;;;;;;1.10;0.60;;;;;;;;;;5020271;28;20080;-80
2021/05/20 08:37:45;;;;;;;2.22;0.63;;;;;;;;;;5022444;28;20084;-80
2021/05/20 08:40:12;;;;;;;1.23;0.80;;;;;;;;;;5029326;28;20073;-80
2021/05/20 08:42:39;;;;;;;4.50;0.50;;;;;;;;;;5026949;28;20022;-82
2021/05/20 08:45:09;;;;;;;0.85;0.50;;;;;;;;;;5022043;28;20034;-82
2021/05/20 08:47:35;;;;;;;1.55;0.43;;;;;;;;;;5028275;28;20024;-81
2021/05/20 08:50:01;;;;;;;0.28;0.20;;;;;;;;;;5036152;28;20370;-84
2021/05/20 08:52:27;;;;;;;2.08;0.30;;;;;;;;;;5018792;28;20081;-82
2021/05/20 08:54:54;;;;;;;0.30;0.20;;;;;;;;;;5016995;28;20474;-82
2021/05/20 08:57:24;;;;;;;0.25;0.20;;;;;;;;;;5022464;28;20088;-84
2021/05/20 08:59:52;;;;;;;0.35;0.20;;;;;;;;;;5023675;28;20470;-85
2021/05/20 09:02:22;;;;;;;0.73;0.55;;;;;;;;;;5025514;28;20022;-85
2021/05/20 09:05:02;;;;;;;0.17;0.17;;;;;;;;;;5026691;28;20056;-83
2021/05/20 09:07:30;;;;;;;2.30;0.30;;;;;;;;;;5025492;28;20026;-84
2021/05/20 09:10:09;;;;;;;2.25;0.88;;;;;;;;;;5029144;28;20057;-80
2021/05/20 09:12:35;;;;;;;2.88;0.60;;;;;;;;;;5025885;28;20062;-79
2021/05/20 09:15:01;;;;;;;2.47;0.77;;;;;;;;;;5028978;28;20465;-80
2021/05/20 09:17:27;;;;;;;0.68;0.28;;;;;;;;;;5022609;28;20037;-79
2021/05/20 09:19:53;;;;;;;2.58;0.20;;;;;;;;;;5022059;28;20467;-78
2021/05/20 09:22:21;;;;;;;0.10;0.10;;;;;;;;;;5021973;28;20034;-79
2021/05/20 09:24:50;;;;;;;0.15;0.15;;;;;;;;;;5022395;28;20065;-80
2021/05/20 09:27:23;;;;;;;0.38;0.20;;;;;;;;;;5023485;28;20038;-79
2021/05/20 09:30:08;;;;;;;3.40;0.90;;;;;;;;;;5023761;28;20052;-80
2021/05/20 09:32:35;;;;;;;1.10;0.30;;;;;;;;;;5023988;28;20088;-79
2021/05/20 09:35:01;;;;;;;0.95;0.63;;;;;;;;;;5023349;28;20041;-79
2021/05/20 09:37:27;;;;;;;0.63;0.50;;;;;;;;;;5023892;28;20030;-79
2021/05/20 09:40:04;;;;;;;1.35;0.50;;;;;;;;;;5023750;28;20019;-79
2021/05/20 09:42:31;;;;;;;1.05;0.45;;;;;;;;;;5022444;28;20654;-78
2021/05/20 09:45:11;;;;;;;0.65;0.43;;;;;;;;;;5013949;28;20573;-78
2021/05/20 09:47:37;;;;;;;1.77;0.30;;;;;;;;;;5027996;28;20065;-79
2021/05/20 09:50:22;;;;;;;0.43;0.20;;;;;;;;;;5022980;28;20064;-79
2021/05/20 09:52:49;;;;;;;0.47;0.35;;;;;;;;;;5020168;28;20076;-80
2021/05/20 09:55:21;;;;;;;2.30;0.60;;;;;;;;;;5018455;28;20152;-79
2021/05/20 09:57:48;;;;;;;0.77;0.60;;;;;;;;;;5021209;28;20026;-79
2021/05/20 10:00:16;;;;;;;0.77;0.40;;;;;;;;;;5021809;28;20053;-80
2021/05/20 10:02:43;;;;;;;0.28;0.25;;;;;;;;;;5020983;28;20029;-80
2021/05/20 10:05:19;;;;;;;0.40;0.35;;;;;;;;;;5023505;28;20034;-79
2021/05/20 10:07:45;;;;;;;0.57;0.55;;;;;;;;;;5022640;28;20030;-80
2021/05/20 10:10:11;;;;;;;1.35;0.50;;;;;;;;;;5021096;28;20049;-81
2021/05/20 10:12:40;;;;;;;0.50;0.30;;;;;;;;;;5023739;28;20029;-81
2021/05/20 10:15:07;;;;;;;0.30;0.30;;;;;;;;;;5029641;28;20053;-80
2021/05/20 10:17:34;;;;;;;0.90;0.40;;;;;;;;;;5032922;28;20395;-80
2021/05/20 10:20:02;;;;;;;0.57;0.30;;;;;;;;;;5021411;28;20033;-81
2021/05/20 10:22:28;;;;;;;1.73;0.30;;;;;;;;;;5024899;28;20017;-81
2021/05/20 10:24:56;;;;;;;0.30;0.30;;;;;;;;;;5020991;28;20426;-80
2021/05/20 10:27:23;;;;;;;1.27;0.40;;;;;;;;;;5023824;28;20122;-80
2021/05/20 10:29:51;;;;;;;0.50;0.40;;;;;;;;;;5026869;28;20030;-80
2021/05/20 10:32:17;;;;;;;0.80;0.43;;;;;;;;;;5024543;28;20042;-80
2021/05/20 10:34:59;;;;;;;0.73;0.60;;;;;;;;;;5023984;28;20030;-80
2021/05/20 10:37:28;;;;;;;0.93;0.40;;;;;;;;;;5022671;28;20133;-80
2021/05/20 10:39:54;;;;;;;3.00;0.60;;;;;;;;;;5024686;28;20362;-80
2021/05/20 10:42:32;;;;;;;5.05;0.50;;;;;;;;;;5024775;28;20061;-81
2021/05/20 10:45:18;;;;;;;0.85;0.30;;;;;;;;;;5032091;28;20036;-81
2021/05/20 10:48:03;;;;;;;0.75;0.45;;;;;;;;;;5053410;22;20045;-81
2021/05/20 10:50:48;;;;;;;3.70;0.50;;;;;;;;;;5035612;28;20101;-81
2021/05/20 10:53:34;;;;;;;0.20;0.20;;;;;;;;;;5040487;28;20017;-81
2021/05/20 10:56:00;;;;;;;3.28;0.30;;;;;;;;;;5033315;28;20060;-81
2021/05/20 10:58:30;;;;;;;0.50;0.20;;;;;;;;;;5058196;28;20020;-81
2021/05/20 11:00:56;;;;;;;0.88;0.30;;;;;;;;;;5072516;28;20041;-81
2021/05/20 11:03:42;;;;;;;0.13;0.13;;;;;;;;;;5072714;28;20115;-80
2021/05/20 11:06:08;;;;;;;0.20;0.20;;;;;;;;;;5082008;28;20043;-81
2021/05/20 11:08:34;;;;;;;0.10;0.10;;;;;;;;;;5056425;28;20109;-80
2021/05/20 11:11:00;;;;;;;1.33;0.30;;;;;;;;;;5041581;28;20021;-80
2021/05/20 11:13:36;;;;;;;1.85;0.52;;;;;;;;;;5058016;28;20033;-80
2021/05/20 11:16:28;;;;;;;0.20;0.20;;;;;;;;;;5065646;28;20025;-81
2021/05/20 11:18:54;;;;;;;0.22;0.20;;;;;;;;;;5061627;28;20107;-81
2021/05/20 11:21:21;;;;;;;1.30;0.50;;;;;;;;;;5043346;28;20037;-81
2021/05/20 11:23:47;;;;;;;3.05;0.82;;;;;;;;;;5044153;28;20029;-81
2021/05/20 11:26:13;;;;;;;1.02;0.47;;;;;;;;;;5057691;28;20013;-80
2021/05/20 11:28:45;;;;;;;0.47;0.25;;;;;;;;;;5054689;28;20079;-80
2021/05/20 11:31:11;;;;;;;0.10;0.10;;;;;;;;;;5045765;28;20049;-81
2021/05/20 11:34:05;;;;;;;0.73;0.25;;;;;;;;;;5043069;28;20017;-81
2021/05/20 11:36:24;;;;;;;0.57;0.17;;;;;;;;;;5042936;28;20060;-81
2021/05/20 11:38:55;;;;;;;3.08;2.45;;;;;;;;;;5043171;28;20060;-81
2021/05/20 11:41:21;;;;;;;4.65;4.10;;;;;;;;;;5051270;28;20009;-80
2021/05/20 11:43:48;;;;;;;4.63;3.42;;;;;;;;;;5055074;28;20109;-81
2021/05/20 11:46:32;;;;;;;10.63;7.32;;;;;;;;;;5053659;28;20033;-81
2021/05/20 11:49:02;;;;;;;8.77;5.15;;;;;;;;;;5059470;28;20040;-81
2021/05/20 11:52:04;;;;;;;5.53;4.60;;;;;;;;;;5043194;28;20507;-82
2021/05/20 11:54:30;;;;;;;3.93;3.53;;;;;;;;;;5021261;28;20026;-80
2021/05/20 11:56:57;;;;;;;1.70;1.60;;;;;;;;;;5046724;28;20034;-80
2021/05/20 11:59:38;;;;;;;0.85;0.80;;;;;;;;;;5062434;28;20029;-80
2021/05/20 12:02:05;;;;;;;4.97;2.28;;;;;;;;;;5068962;28;20464;-80
2021/05/20 12:04:32;;;;;;;0.73;0.40;;;;;;;;;;5064629;28;20059;-80
2021/05/20 12:06:59;;;;;;;0.60;0.60;;;;;;;;;;5061512;28;20024;-81
2021/05/20 12:09:25;;;;;;;1.30;0.75;;;;;;;;;;5055218;28;20445;-81
2021/05/20 12:11:51;;;;;;;0.52;0.45;;;;;;;;;;5066617;28;20025;-81
2021/05/20 12:14:31;;;;;;;1.83;0.60;;;;;;;;;;5070784;28;20068;-82
2021/05/20 12:17:18;;;;;;;0.75;0.40;;;;;;;;;;5070677;28;20013;-79
2021/05/20 12:19:48;;;;;;;2.50;0.40;;;;;;;;;;5054793;28;20025;-80
2021/05/20 12:22:18;;;;;;;0.20;0.20;;;;;;;;;;5063331;28;20045;-80
2021/05/20 12:24:49;;;;;;;0.20;0.20;;;;;;;;;;5057937;28;20048;-79
2021/05/20 12:27:18;;;;;;;0.28;0.28;;;;;;;;;;5059716;28;20035;-82
2021/05/20 12:29:45;;;;;;;1.35;0.25;;;;;;;;;;5061748;28;20021;-82
2021/05/20 12:32:24;;;;;;;0.90;0.30;;;;;;;;;;5061088;28;20032;-80
2021/05/20 12:35:09;;;;;;;1.42;0.50;;;;;;;;;;5063928;28;20021;-81
2021/05/20 12:37:44;;;;;;;0.55;0.40;;;;;;;;;;5060212;28;20033;-81
2021/05/20 12:40:21;;;;;;;4.00;0.40;;;;;;;;;;5078278;28;20486;-82
2021/05/20 12:43:03;;;;;;;0.28;0.20;;;;;;;;;;5059558;28;20029;-82
2021/05/20 12:45:30;;;;;;;0.70;0.40;;;;;;;;;;5060066;28;20078;-81
2021/05/20 12:47:56;;;;;;;0.77;0.30;;;;;;;;;;5049234;28;20040;-82
2021/05/20 12:50:27;;;;;;;0.30;0.30;;;;;;;;;;5060887;28;20585;-81
2021/05/20 12:52:54;;;;;;;0.40;0.40;;;;;;;;;;5067297;28;20032;-81
2021/05/20 12:55:20;;;;;;;0.32;0.30;;;;;;;;;;5059129;28;20468;-80
2021/05/20 12:57:56;;;;;;;1.20;0.40;;;;;;;;;;5062442;28;20033;-80
2021/05/20 13:00:22;;;;;;;2.03;0.20;;;;;;;;;;5051623;28;20037;-80
2021/05/20 13:02:58;;;;;;;0.63;0.30;;;;;;;;;;5047151;28;20070;-80
2021/05/20 13:05:24;;;;;;;0.32;0.32;;;;;;;;;;5049904;28;20025;-80
2021/05/20 13:07:50;;;;;;;0.40;0.22;;;;;;;;;;5050836;28;20026;-80
2021/05/20 13:10:36;;;;;;;0.38;0.32;;;;;;;;;;5051073;28;20056;-80
2021/05/20 13:13:02;;;;;;;1.35;0.50;;;;;;;;;;5044994;28;20099;-81
2021/05/20 13:15:46;;;;;;;2.40;2.20;;;;;;;;;;5041309;28;20032;-80
2021/05/20 13:19:27;;;;;;;0.90;0.75;;;;;;;;;;5048713;28;20029;-79
2021/05/20 13:23:38;;;;;;;0.90;0.47;;;;;;;;;;5039205;28;20072;-79
2021/05/20 13:26:04;;;;;;;2.47;0.30;;;;;;;;;;5045248;28;20168;-79
2021/05/20 13:28:30;;;;;;;0.60;0.45;;;;;;;;;;5057130;28;20382;-80
2021/05/20 13:30:58;;;;;;;0.98;0.40;;;;;;;;;;5057107;28;20033;-80
2021/05/20 13:33:36;;;;;;;0.35;0.35;;;;;;;;;;5057861;28;20032;-79
2021/05/20 13:36:06;;;;;;;0.45;0.40;;;;;;;;;;5057907;28;20033;-80
2021/05/20 13:38:32;;;;;;;0.98;0.30;;;;;;;;;;5072786;28;20044;-79
2021/05/20 13:40:58;;;;;;;0.57;0.30;;;;;;;;;;5072919;28;20021;-80
2021/05/20 13:43:25;;;;;;;1.40;0.50;;;;;;;;;;5058323;28;20047;-79
2021/05/20 13:45:52;;;;;;;0.32;0.30;;;;;;;;;;5075255;28;20033;-80
2021/05/20 13:48:19;;;;;;;0.65;0.65;;;;;;;;;;5055240;28;20418;-79
2021/05/20 13:50:48;;;;;;;2.28;1.10;;;;;;;;;;5046704;28;20029;-81
2021/05/20 13:53:14;;;;;;;1.60;1.48;;;;;;;;;;5045146;28;20081;-80
2021/05/20 13:55:41;;;;;;;3.38;2.55;;;;;;;;;;5052240;28;20075;-80
2021/05/20 13:58:10;;;;;;;1.95;1.77;;;;;;;;;;5051381;28;20026;-80
2021/05/20 14:00:37;;;;;;;1.05;0.73;;;;;;;;;;5062267;28;20052;-81
2021/05/20 14:03:05;;;;;;;1.15;0.47;;;;;;;;;;5062543;28;20315;-80
2021/05/20 14:05:32;;;;;;;0.30;0.30;;;;;;;;;;5061822;28;20401;-80
2021/05/20 14:07:58;;;;;;;2.78;0.60;;;;;;;;;;5062844;28;20537;-80
2021/05/20 14:10:27;;;;;;;1.25;0.70;;;;;;;;;;5061146;28;20021;-80
2021/05/20 14:12:53;;;;;;;1.50;0.45;;;;;;;;;;5060385;28;20051;-80
2021/05/20 14:15:19;;;;;;;0.50;0.40;;;;;;;;;;5057923;28;20512;-79
2021/05/20 14:17:46;;;;;;;1.73;1.35;;;;;;;;;;5046487;28;20067;-81
2021/05/20 14:20:18;;;;;;;1.52;1.40;;;;;;;;;;5054017;28;20026;-80
2021/05/20 14:22:44;;;;;;;;;;;;;;;;;;5045922;28;20017;-80
2021/05/20 14:25:10;;;;;;;0.70;0.70;;;;;;;;;;5061870;28;20050;-80
2021/05/20 14:27:36;;;;;;;0.70;0.70;;;;;;;;;;5062952;28;20102;-80
2021/05/20 14:30:04;;;;;;;0.50;0.50;;;;;;;;;;5062405;28;20108;-80
2021/05/20 14:32:30;;;;;;;2.20;0.40;;;;;;;;;;5062661;28;20097;-79
2021/05/20 14:34:56;;;;;;;0.28;0.28;;;;;;;;;;5066572;28;20059;-79
2021/05/20 14:37:23;;;;;;;0.30;0.30;;;;;;;;;;5067714;28;20043;-80
2021/05/20 14:39:50;;;;;;;0.57;0.30;;;;;;;;;;5062113;28;20124;-79
2021/05/20 14:42:16;;;;;;;0.17;0.17;;;;;;;;;;5064564;28;20036;-80
2021/05/20 14:44:43;;;;;;;2.60;0.50;;;;;;;;;;5067631;28;20040;-80
2021/05/20 14:47:10;;;;;;;0.28;0.20;;;;;;;;;;5059281;28;20045;-80
2021/05/20 14:49:49;;;;;;;0.45;0.20;;;;;;;;;;5051837;28;20079;-81
2021/05/20 14:55:12;;;;;;;0.20;0.20;;;;;;;;;;5049135;28;20022;-82
2021/05/20 15:05:34;;;;;;;0.32;0.25;;;;;;;;;;5043847;28;20043;-80
2021/05/20 15:08:01;;;;;;;0.25;0.17;;;;;;;;;;5051981;28;20021;-81
2021/05/20 15:10:40;;;;;;;0.20;0.20;;;;;;;;;;5042214;28;20025;-79
2021/05/20 15:13:25;;;;;;;0.75;0.20;;;;;;;;;;5054967;28;20444;-81
2021/05/20 15:15:51;;;;;;;0.30;0.20;;;;;;;;;;5076788;28;20059;-80